createdAt,value
2024-05-09T00:00:39.222Z,5.80
2024-05-09T00:03:08.615Z,5.97
2024-05-09T00:05:36.815Z,5.88
2024-05-09T00:08:04.501Z,5.93
2024-05-09T00:10:36.440Z,6.10
2024-05-09T00:13:05.790Z,6.07
2024-05-09T00:15:33.598Z,5.68
2024-05-09T00:18:00.860Z,6.00
2024-05-09T00:20:33.499Z,6.15
2024-05-09T00:23:07.045Z,6.38
2024-05-09T00:25:34.218Z,5.90
2024-05-09T00:28:00.975Z,6.38
2024-05-09T00:30:33.781Z,6.55
2024-05-09T00:33:03.862Z,6.15
2024-05-09T00:35:31.228Z,6.07
2024-05-09T00:37:58.000Z,6.28
2024-05-09T00:40:35.300Z,6.03
2024-05-09T00:43:06.409Z,6.03
2024-05-09T00:45:34.413Z,5.97
2024-05-09T00:48:05.026Z,6.45
2024-05-09T00:50:37.480Z,6.32
2024-05-09T00:53:07.038Z,6.13
2024-05-09T00:55:35.634Z,6.32
2024-05-09T00:58:04.433Z,7.10
2024-05-09T01:00:37.979Z,7.30
2024-05-09T01:03:07.316Z,7.20
2024-05-09T01:05:35.054Z,7.57
2024-05-09T01:08:03.159Z,7.43
2024-05-09T01:10:34.626Z,6.97
2024-05-09T01:13:06.961Z,6.95
2024-05-09T01:15:35.028Z,7.13
2024-05-09T01:18:07.312Z,7.03
2024-05-09T01:20:41.145Z,7.55
2024-05-09T01:23:11.166Z,6.88
2024-05-09T01:25:38.229Z,7.40
2024-05-09T01:28:05.517Z,7.25
2024-05-09T01:30:35.600Z,6.88
2024-05-09T01:33:06.275Z,7.07
2024-05-09T01:35:34.688Z,6.68
2024-05-09T01:38:01.508Z,6.28
2024-05-09T01:40:36.745Z,6.88
2024-05-09T01:43:06.406Z,6.90
2024-05-09T01:45:33.220Z,7.70
2024-05-09T01:48:00.142Z,7.30
2024-05-09T01:50:36.982Z,7.22
2024-05-09T01:53:07.765Z,7.35
2024-05-09T01:55:34.539Z,7.00
2024-05-09T01:58:01.210Z,7.72
2024-05-09T02:00:37.948Z,6.90
2024-05-09T02:03:15.373Z,6.75
2024-05-09T02:05:48.435Z,7.55
2024-05-09T02:08:17.972Z,6.70
2024-05-09T02:10:46.523Z,6.75
2024-05-09T02:18:08.081Z,5.50
2024-05-09T02:20:38.060Z,5.70
2024-05-09T02:23:06.610Z,6.28
2024-05-09T02:25:33.769Z,6.78
2024-05-09T02:28:00.589Z,6.57
2024-05-09T02:30:37.767Z,6.50
2024-05-09T02:33:08.700Z,5.65
2024-05-09T02:35:36.315Z,5.90
2024-05-09T02:38:03.332Z,5.78
2024-05-09T02:40:36.700Z,5.65
2024-05-09T02:43:10.810Z,5.68
2024-05-09T02:45:41.450Z,5.72
2024-05-09T02:48:13.225Z,5.57
2024-05-09T02:50:41.087Z,5.57
2024-05-09T02:53:09.345Z,5.75
2024-05-09T02:55:37.170Z,5.45
2024-05-09T02:58:04.198Z,4.30
2024-05-09T03:00:38.549Z,4.05
2024-05-09T03:03:09.718Z,3.53
2024-05-09T03:05:38.352Z,3.58
2024-05-09T03:08:05.710Z,3.83
2024-05-09T03:10:36.293Z,3.53
2024-05-09T03:13:13.945Z,4.00
2024-05-09T03:15:42.511Z,3.85
2024-05-09T03:18:09.945Z,4.10
2024-05-09T03:20:38.066Z,4.85
2024-05-09T03:23:08.065Z,4.72
2024-05-09T03:25:35.979Z,4.82
2024-05-09T03:28:02.767Z,5.28
2024-05-09T03:30:38.352Z,5.32
2024-05-09T03:33:17.733Z,5.65
2024-05-09T03:35:46.662Z,4.82
2024-05-09T03:38:13.704Z,5.50
2024-05-09T03:40:48.771Z,5.65
2024-05-09T03:43:16.559Z,5.97
2024-05-09T03:45:43.657Z,6.03
2024-05-09T03:48:10.659Z,5.47
2024-05-09T03:50:37.951Z,5.85
2024-05-09T03:53:05.455Z,5.80
2024-05-09T03:55:32.268Z,5.65
2024-05-09T03:57:59.190Z,5.43
2024-05-09T04:00:34.492Z,5.13
2024-05-09T04:03:07.666Z,4.97
2024-05-09T04:05:38.109Z,3.70
2024-05-09T04:08:05.565Z,3.58
2024-05-09T04:10:34.221Z,3.45
2024-05-09T04:13:03.150Z,3.20
2024-05-09T04:17:57.177Z,4.78
2024-05-09T04:20:33.458Z,4.40
2024-05-09T04:23:13.611Z,3.75
2024-05-09T04:25:42.799Z,3.90
2024-05-09T04:28:10.061Z,3.92
2024-05-09T04:30:39.707Z,3.58
2024-05-09T04:33:11.034Z,3.95
2024-05-09T04:35:42.033Z,4.25
2024-05-09T04:38:09.138Z,3.90
2024-05-09T04:40:37.242Z,4.45
2024-05-09T04:43:05.947Z,5.45
2024-05-09T04:48:00.224Z,4.50
2024-05-09T04:50:35.592Z,4.35
2024-05-09T04:53:06.215Z,4.60
2024-05-09T04:55:33.674Z,4.93
2024-05-09T04:58:00.386Z,4.53
2024-05-09T05:00:34.750Z,4.53
2024-05-09T05:03:10.206Z,4.70
2024-05-09T05:05:42.611Z,4.40
2024-05-09T05:08:13.604Z,4.25
2024-05-09T05:10:41.120Z,4.28
2024-05-09T05:13:18.269Z,4.35
2024-05-09T05:15:55.773Z,4.50
2024-05-09T05:18:24.186Z,4.57
2024-05-09T05:20:51.511Z,6.80
2024-05-09T05:23:20.271Z,6.22
2024-05-09T05:25:54.276Z,6.53
2024-05-09T05:28:21.810Z,6.40
2024-05-09T05:30:48.637Z,6.97
2024-05-09T05:33:16.257Z,7.18
2024-05-09T05:35:43.265Z,8.93
2024-05-09T05:38:10.968Z,9.45
2024-05-09T05:40:39.367Z,8.93
2024-05-09T05:43:11.216Z,9.20
2024-05-09T05:45:38.958Z,9.65
2024-05-09T05:48:07.291Z,10.73
2024-05-09T05:50:37.241Z,10.18
2024-05-09T05:53:09.936Z,9.63
2024-05-09T05:55:38.794Z,10.15
2024-05-09T06:03:01.816Z,10.00
2024-05-09T06:05:28.917Z,10.32
2024-05-09T06:07:55.764Z,11.88
2024-05-09T06:10:26.317Z,10.98
2024-05-09T06:13:01.478Z,11.60
2024-05-09T06:15:28.172Z,11.88
2024-05-09T06:17:55.039Z,11.68
2024-05-09T06:20:31.515Z,12.00
2024-05-09T06:25:30.257Z,11.65
2024-05-09T06:27:56.954Z,11.65
2024-05-09T06:30:30.705Z,13.07
2024-05-09T06:33:05.970Z,13.43
2024-05-09T06:38:00.412Z,14.10
2024-05-09T06:40:36.133Z,14.38
2024-05-09T06:43:05.816Z,14.68
2024-05-09T06:45:32.632Z,15.93
2024-05-09T06:47:59.509Z,17.85
2024-05-09T06:50:28.706Z,15.20
2024-05-09T06:53:02.572Z,14.25
2024-05-09T06:55:29.382Z,15.18
2024-05-09T06:57:56.076Z,14.50
2024-05-09T07:00:30.489Z,15.95
2024-05-09T07:03:13.066Z,14.68
2024-05-09T07:05:41.961Z,13.75
2024-05-09T07:08:08.746Z,13.45
2024-05-09T07:10:36.523Z,13.35
2024-05-09T07:15:34.278Z,12.65
2024-05-09T07:18:01.210Z,12.88
2024-05-09T07:20:34.177Z,13.52
2024-05-09T07:23:03.105Z,13.38
2024-05-09T07:25:30.484Z,12.77
2024-05-09T07:27:57.307Z,13.63
2024-05-09T07:30:32.547Z,12.05
2024-05-09T07:33:01.424Z,11.90
2024-05-09T07:35:28.923Z,11.07
2024-05-09T07:37:55.793Z,11.15
2024-05-09T07:40:32.694Z,10.90
2024-05-09T07:45:45.927Z,10.05
2024-05-09T07:53:38.229Z,11.45
2024-05-09T07:56:05.731Z,11.43
2024-05-09T07:58:32.536Z,10.75
2024-05-09T08:00:59.220Z,11.15
2024-05-09T08:03:25.934Z,11.43
2024-05-09T08:05:52.738Z,11.18
2024-05-09T08:08:19.415Z,11.30
2024-05-09T08:10:46.510Z,11.35
2024-05-09T08:13:13.622Z,11.45
2024-05-09T08:15:40.330Z,10.43
2024-05-09T08:18:10.612Z,9.60
2024-05-09T08:20:38.916Z,10.02
2024-05-09T08:27:58.870Z,9.57
2024-05-09T08:30:32.793Z,9.55
2024-05-09T08:33:05.104Z,10.05
2024-05-09T08:35:32.984Z,9.90
2024-05-09T08:37:59.696Z,9.70
2024-05-09T08:40:33.729Z,9.32
2024-05-09T08:43:06.815Z,8.30
2024-05-09T08:45:35.821Z,9.13
2024-05-09T08:48:07.656Z,8.82
2024-05-09T08:50:39.068Z,8.63
2024-05-09T08:53:07.470Z,9.05
2024-05-09T08:55:34.893Z,9.63
2024-05-09T08:58:04.321Z,10.45
2024-05-09T09:00:36.901Z,9.25
2024-05-09T09:03:09.363Z,11.13
2024-05-09T09:05:39.074Z,9.57
2024-05-09T09:08:08.042Z,11.07
2024-05-09T09:10:35.348Z,11.48
2024-05-09T09:13:04.663Z,9.57
2024-05-09T09:15:32.076Z,10.75
2024-05-09T09:18:00.847Z,12.07
2024-05-09T09:20:35.732Z,11.57
2024-05-09T09:23:04.496Z,11.10
2024-05-09T09:25:31.935Z,10.93
2024-05-09T09:27:59.250Z,10.77
2024-05-09T09:30:36.358Z,9.85
2024-05-09T09:33:06.379Z,10.35
2024-05-09T09:35:34.629Z,10.85
2024-05-09T09:40:37.215Z,9.93
2024-05-09T09:43:18.650Z,9.23
2024-05-09T09:45:46.944Z,12.43
2024-05-09T09:48:14.863Z,10.07
2024-05-09T09:50:42.322Z,11.35
2024-05-09T09:53:10.368Z,12.57
2024-05-09T09:58:06.396Z,11.60
2024-05-09T10:00:34.549Z,11.70
2024-05-09T10:03:02.223Z,11.93
2024-05-09T10:05:30.152Z,11.40
2024-05-09T10:10:32.105Z,10.10
2024-05-09T10:13:07.664Z,10.85
2024-05-09T10:15:50.766Z,11.35
2024-05-09T10:18:22.753Z,10.38
2024-05-09T10:20:51.800Z,9.85
2024-05-09T10:23:36.214Z,10.50
2024-05-09T10:26:06.331Z,9.63
2024-05-09T10:28:35.497Z,9.98
2024-05-09T10:31:13.919Z,8.93
2024-05-09T10:33:52.482Z,9.10
2024-05-09T10:36:24.240Z,8.52
2024-05-09T10:38:52.812Z,7.63
2024-05-09T10:41:21.352Z,8.15
2024-05-09T10:43:49.178Z,7.82
2024-05-09T10:46:16.694Z,7.43
2024-05-09T10:48:44.414Z,7.25
2024-05-09T10:51:11.669Z,6.70
2024-05-09T10:53:42.650Z,7.35
2024-05-09T10:56:10.130Z,7.30
2024-05-09T10:58:37.164Z,7.78
2024-05-09T11:01:06.868Z,7.07
2024-05-09T11:03:35.002Z,7.93
2024-05-09T11:08:28.940Z,6.70
2024-05-09T11:10:56.922Z,6.30
2024-05-09T11:13:37.914Z,6.43
2024-05-09T11:16:06.484Z,7.63
2024-05-09T11:18:37.853Z,8.00
2024-05-09T11:21:12.847Z,8.07
2024-05-09T11:23:40.311Z,7.72
2024-05-09T11:26:07.134Z,8.93
2024-05-09T11:28:33.835Z,7.47
2024-05-09T11:31:08.734Z,7.88
2024-05-09T11:33:41.405Z,7.05
2024-05-09T11:36:09.311Z,8.43
2024-05-09T11:41:03.740Z,8.60
2024-05-09T11:43:30.626Z,10.48
2024-05-09T11:45:58.198Z,9.85
2024-05-09T11:48:25.781Z,9.43
2024-05-09T11:50:53.740Z,9.40
2024-05-09T11:53:20.389Z,9.20
2024-05-09T11:55:47.035Z,9.10
2024-05-09T11:58:17.216Z,8.93
2024-05-09T12:00:44.419Z,9.00
2024-05-09T12:03:11.177Z,9.05
2024-05-09T12:05:37.931Z,8.27
2024-05-09T12:08:05.016Z,9.60
2024-05-09T12:10:34.448Z,9.93
2024-05-09T12:13:05.087Z,9.48
2024-05-09T12:15:34.036Z,8.93
2024-05-09T12:18:03.586Z,9.60
2024-05-09T12:20:36.801Z,9.50
2024-05-09T12:23:06.540Z,9.98
2024-05-09T12:25:33.414Z,9.73
2024-05-09T12:28:00.711Z,9.93
2024-05-09T12:30:35.899Z,9.77
2024-05-09T12:33:07.679Z,10.40
2024-05-09T12:35:34.657Z,9.80
2024-05-09T12:38:01.559Z,9.88
2024-05-09T12:40:35.592Z,10.15
2024-05-09T12:43:09.601Z,10.13
2024-05-09T12:45:37.927Z,10.32
2024-05-09T12:48:07.544Z,10.55
2024-05-09T12:50:35.051Z,10.23
2024-05-09T12:53:03.475Z,11.27
2024-05-09T12:55:36.630Z,10.68
2024-05-09T12:58:08.880Z,9.93
2024-05-09T13:00:36.068Z,11.25
2024-05-09T13:03:03.178Z,11.15
2024-05-09T13:05:30.243Z,10.85
2024-05-09T13:07:57.411Z,10.48
2024-05-09T13:10:29.403Z,11.40
2024-05-09T13:13:00.132Z,11.05
2024-05-09T13:17:55.792Z,10.68
2024-05-09T13:20:31.659Z,10.68
2024-05-09T13:23:02.166Z,11.05
2024-05-09T13:25:28.948Z,10.35
2024-05-09T13:27:56.817Z,10.57
2024-05-09T13:30:29.901Z,10.77
2024-05-09T13:33:06.059Z,11.18
2024-05-09T13:35:35.413Z,10.75
2024-05-09T13:38:02.825Z,10.35
2024-05-09T13:40:33.908Z,10.60
2024-05-09T13:43:06.404Z,10.60
2024-05-09T13:45:33.948Z,11.55
2024-05-09T13:48:02.352Z,10.65
2024-05-09T13:50:35.799Z,11.63
2024-05-09T13:53:06.006Z,11.48
2024-05-09T13:55:33.970Z,10.73
2024-05-09T13:58:01.290Z,11.02
2024-05-09T14:00:41.487Z,11.45
2024-05-09T14:03:13.876Z,11.00
2024-05-09T14:05:40.983Z,11.77
2024-05-09T14:08:08.722Z,10.98
2024-05-09T14:10:35.664Z,11.45
2024-05-09T14:13:02.550Z,11.60
2024-05-09T14:15:29.454Z,11.88
2024-05-09T14:17:56.302Z,12.10
2024-05-09T14:20:30.244Z,11.63
2024-05-09T14:23:01.862Z,12.32
2024-05-09T14:25:30.463Z,11.45
2024-05-09T14:28:00.359Z,12.00
2024-05-09T14:30:34.724Z,11.75
2024-05-09T14:33:05.425Z,12.48
2024-05-09T14:35:32.734Z,12.15
2024-05-09T14:37:59.517Z,11.05
2024-05-09T14:40:36.695Z,11.45
2024-05-09T14:43:08.752Z,11.35
2024-05-09T14:45:35.856Z,11.93
2024-05-09T14:48:03.355Z,11.35
2024-05-09T14:53:06.749Z,12.45
2024-05-09T14:55:36.572Z,12.68
2024-05-09T14:58:06.214Z,11.90
2024-05-09T15:00:36.269Z,12.02
2024-05-09T15:03:05.211Z,10.75
2024-05-09T15:07:59.463Z,11.88
2024-05-09T15:10:33.989Z,11.88
2024-05-09T15:13:02.977Z,13.38
2024-05-09T15:15:30.076Z,13.98
2024-05-09T15:17:57.164Z,15.15
2024-05-09T15:20:31.435Z,15.45
2024-05-09T15:23:02.324Z,14.05
2024-05-09T15:25:29.443Z,16.10
2024-05-09T15:27:56.548Z,16.38
2024-05-09T15:30:30.431Z,17.20
2024-05-09T15:32:59.680Z,17.13
2024-05-09T15:35:26.491Z,17.38
2024-05-09T15:37:53.298Z,18.58
2024-05-09T15:40:30.422Z,18.38
2024-05-09T15:43:04.638Z,18.77
2024-05-09T15:45:32.066Z,20.05
2024-05-09T15:47:59.310Z,19.30
2024-05-09T15:50:35.650Z,19.77
2024-05-09T15:55:34.701Z,20.35
2024-05-09T15:58:02.948Z,19.02
2024-05-09T16:00:37.432Z,19.13
2024-05-09T16:03:08.310Z,19.63
2024-05-09T16:05:35.130Z,18.67
2024-05-09T16:08:02.395Z,18.48
2024-05-09T16:10:32.812Z,18.55
2024-05-09T16:13:02.187Z,19.38
2024-05-09T16:15:29.469Z,19.65
2024-05-09T16:17:56.330Z,19.45
2024-05-09T16:22:52.861Z,19.73
2024-05-09T16:25:19.700Z,20.60
2024-05-09T16:27:46.687Z,20.08
2024-05-09T16:30:20.991Z,19.63
2024-05-09T16:32:54.080Z,20.02
2024-05-09T16:35:20.843Z,20.00
2024-05-09T16:37:47.893Z,19.23
2024-05-09T16:40:22.168Z,19.33
2024-05-09T16:42:56.888Z,19.73
2024-05-09T16:45:23.510Z,19.50
2024-05-09T16:47:50.518Z,20.15
2024-05-09T16:50:25.737Z,20.45
2024-05-09T16:52:55.792Z,20.25
2024-05-09T16:55:22.782Z,20.52
2024-05-09T16:57:50.093Z,20.45
2024-05-09T17:00:25.549Z,20.10
2024-05-09T17:02:58.438Z,20.45
2024-05-09T17:05:25.300Z,20.98
2024-05-09T17:07:51.995Z,21.00
2024-05-09T17:10:26.764Z,20.30
2024-05-09T17:12:58.954Z,19.88
2024-05-09T17:15:25.787Z,20.27
2024-05-09T17:17:52.611Z,20.30
2024-05-09T17:20:29.285Z,19.70
2024-05-09T17:23:00.538Z,19.83
2024-05-09T17:25:27.300Z,20.45
2024-05-09T17:27:54.521Z,19.67
2024-05-09T17:30:28.900Z,19.90
2024-05-09T17:35:28.346Z,18.67
2024-05-09T17:37:55.210Z,19.15
2024-05-09T17:40:30.745Z,19.25
2024-05-09T17:43:01.627Z,20.65
2024-05-09T17:45:28.536Z,19.30
2024-05-09T17:47:55.547Z,19.42
2024-05-09T17:50:30.232Z,20.83
2024-05-09T17:53:01.551Z,20.58
2024-05-09T17:55:28.631Z,20.77
2024-05-09T17:57:55.705Z,21.08
2024-05-09T18:00:33.079Z,21.05
2024-05-09T18:03:05.491Z,21.08
2024-05-09T18:05:32.611Z,20.30
2024-05-09T18:07:59.539Z,21.40
2024-05-09T18:10:33.163Z,20.85
2024-05-09T18:13:05.588Z,21.83
2024-05-09T18:15:32.890Z,21.48
2024-05-09T18:17:59.954Z,23.38
2024-05-09T18:20:37.873Z,18.67
2024-05-09T18:23:11.102Z,24.25
2024-05-09T18:25:37.921Z,24.83
2024-05-09T18:28:05.673Z,23.17
2024-05-09T18:30:35.456Z,22.50
2024-05-09T18:33:05.924Z,21.88
2024-05-09T18:35:34.178Z,17.73
2024-05-09T18:38:00.949Z,22.13
2024-05-09T18:40:33.303Z,17.30
2024-05-09T18:43:04.154Z,21.92
2024-05-09T18:45:31.302Z,16.88
2024-05-09T18:47:58.321Z,21.85
2024-05-09T18:50:33.996Z,17.42
2024-05-09T18:53:07.714Z,22.90
2024-05-09T18:55:34.893Z,21.75
2024-05-09T18:58:01.805Z,18.73
2024-05-09T19:00:35.049Z,18.30
2024-05-09T19:03:09.392Z,22.45
2024-05-09T19:05:38.868Z,23.90
2024-05-09T19:08:07.312Z,18.83
2024-05-09T19:10:35.526Z,18.35
2024-05-09T19:13:08.064Z,26.95
2024-05-09T19:15:38.495Z,25.63
2024-05-09T19:18:06.410Z,18.63
2024-05-09T19:20:35.086Z,19.77
2024-05-09T19:23:03.211Z,20.85
2024-05-09T19:25:30.030Z,20.95
2024-05-09T19:27:56.757Z,21.40
2024-05-09T19:30:30.524Z,21.60
2024-05-09T19:33:05.178Z,27.02
2024-05-09T19:35:32.416Z,22.55
2024-05-09T19:37:59.241Z,21.58
2024-05-09T19:40:31.542Z,20.42
2024-05-09T19:43:01.705Z,19.90
2024-05-09T19:45:29.046Z,20.30
2024-05-09T19:47:56.391Z,27.08
2024-05-09T19:50:32.104Z,19.70
2024-05-09T19:53:06.650Z,24.83
2024-05-09T19:55:33.960Z,19.40
2024-05-09T19:58:04.859Z,19.33
2024-05-09T20:00:39.579Z,24.45
2024-05-09T20:03:09.760Z,25.55
2024-05-09T20:08:05.651Z,17.27
2024-05-09T20:10:34.982Z,19.42
2024-05-09T20:13:03.796Z,25.67
2024-05-09T20:15:32.217Z,18.65
2024-05-09T20:17:59.158Z,21.25
2024-05-09T20:20:33.786Z,22.58
2024-05-09T20:23:06.248Z,20.98
2024-05-09T20:25:33.190Z,21.15
2024-05-09T20:28:00.023Z,20.63
2024-05-09T20:30:32.046Z,20.88
2024-05-09T20:33:02.819Z,20.35
2024-05-09T20:35:31.867Z,21.73
2024-05-09T20:37:58.852Z,22.45
2024-05-09T20:40:31.685Z,20.73
2024-05-09T20:43:02.158Z,23.05
2024-05-09T20:45:28.940Z,21.65
2024-05-09T20:47:55.919Z,22.25
2024-05-09T20:50:29.298Z,22.60
2024-05-09T20:53:03.902Z,21.88
2024-05-09T20:55:30.698Z,32.28
2024-05-09T20:57:57.650Z,22.80
2024-05-09T21:00:34.314Z,23.65
2024-05-09T21:03:07.046Z,21.92
2024-05-09T21:05:34.799Z,22.83
2024-05-09T21:08:01.922Z,22.92
2024-05-09T21:10:32.779Z,22.25
2024-05-09T21:13:01.369Z,22.02
2024-05-09T21:15:28.399Z,22.75
2024-05-09T21:17:55.268Z,24.70
2024-05-09T21:20:28.728Z,24.00
2024-05-09T21:22:58.376Z,24.48
2024-05-09T21:25:25.154Z,23.95
2024-05-09T21:27:52.118Z,25.10
2024-05-09T21:30:28.215Z,23.58
2024-05-09T21:33:05.010Z,22.45
2024-05-09T21:35:32.005Z,25.55
2024-05-09T21:37:58.755Z,23.02
2024-05-09T21:40:31.651Z,23.60
2024-05-09T21:43:01.852Z,23.83
2024-05-09T21:45:28.555Z,24.45
2024-05-09T21:47:55.523Z,24.02
2024-05-09T21:50:28.382Z,23.48
2024-05-09T21:53:02.728Z,23.52
2024-05-09T21:55:30.041Z,23.70
2024-05-09T21:57:56.924Z,23.63
2024-05-09T22:00:32.030Z,23.80
2024-05-09T22:03:03.517Z,24.65
2024-05-09T22:05:30.717Z,23.90
2024-05-09T22:07:57.555Z,23.30
2024-05-09T22:10:30.795Z,23.67
2024-05-09T22:13:01.264Z,23.83
2024-05-09T22:15:28.096Z,23.05
2024-05-09T22:17:56.603Z,24.70
2024-05-09T22:20:32.895Z,23.23
2024-05-09T22:23:04.214Z,22.92
2024-05-09T22:25:32.144Z,23.63
2024-05-09T22:27:59.972Z,24.42
2024-05-09T22:30:34.665Z,24.17
2024-05-09T22:33:05.982Z,24.40
2024-05-09T22:35:33.058Z,24.63
2024-05-09T22:38:03.206Z,24.45
2024-05-09T22:40:38.934Z,24.50
2024-05-09T22:43:13.907Z,25.20
2024-05-09T22:45:41.211Z,23.10
2024-05-09T22:48:08.687Z,23.50
2024-05-09T22:50:35.677Z,23.85
2024-05-09T22:53:02.425Z,25.15
2024-05-09T22:55:29.173Z,25.00
2024-05-09T22:57:56.222Z,23.42
2024-05-09T23:00:30.961Z,23.13
2024-05-09T23:03:02.543Z,23.20
2024-05-09T23:05:30.451Z,23.48
2024-05-09T23:07:57.194Z,20.58
2024-05-09T23:10:32.025Z,19.13
2024-05-09T23:13:03.127Z,17.85
2024-05-09T23:15:30.117Z,16.33
2024-05-09T23:17:57.680Z,17.35
2024-05-09T23:22:54.317Z,19.08
2024-05-09T23:25:21.029Z,19.70
2024-05-09T23:27:47.711Z,20.00
2024-05-09T23:30:21.951Z,20.50
2024-05-09T23:32:55.752Z,20.75
2024-05-09T23:35:22.589Z,20.63
2024-05-09T23:37:49.228Z,20.67
2024-05-09T23:40:18.988Z,21.13
2024-05-09T23:42:49.380Z,21.73
2024-05-09T23:45:16.215Z,21.58
2024-05-09T23:47:43.221Z,20.00
2024-05-09T23:50:16.747Z,20.98
2024-05-09T23:52:50.117Z,21.08
2024-05-09T23:55:16.883Z,21.25
2024-05-09T23:57:43.766Z,20.65
